Time;durP1;ratioP1;P1;durP2;ratioP2;P2;SDS_P1;SDS_P2;PMS_P1;PMS_P2;Temp;Humidity;BMP_temperature;BMP_pressure;BME280_temperature;BME280_humidity;BME280_pressure;Samples;Min_cycle;Max_cycle;Signal;HPM_P1;HPM_P2
2020/12/10 00:01:32;;;;;;;4.00;0.90;;;12.00;99.90;;;;;;5084624;28;20453;-66
2020/12/10 00:04:00;;;;;;;9.88;1.40;;;12.00;99.90;;;;;;5072215;28;20056;-65
2020/12/10 00:06:27;;;;;;;8.45;1.20;;;12.00;99.90;;;;;;5083389;28;20049;-64
2020/12/10 00:08:57;;;;;;;17.75;1.17;;;12.00;99.90;;;;;;5093464;28;20047;-65
2020/12/10 00:11:26;;;;;;;10.60;1.33;;;12.00;99.90;;;;;;5093730;28;20062;-65
2020/12/10 00:13:53;;;;;;;3.45;0.95;;;11.90;99.90;;;;;;5092362;28;20040;-65
2020/12/10 00:16:26;;;;;;;9.48;2.58;;;11.90;99.90;;;;;;5086083;28;20048;-65
2020/12/10 00:18:54;;;;;;;9.90;1.23;;;12.00;99.90;;;;;;5072883;28;20457;-64
2020/12/10 00:21:22;;;;;;;13.05;1.40;;;11.90;99.90;;;;;;5084826;28;20529;-65
2020/12/10 00:23:55;;;;;;;9.63;1.50;;;11.90;99.90;;;;;;5081904;28;20048;-65
2020/12/10 00:26:22;;;;;;;7.20;1.67;;;11.80;99.90;;;;;;5071546;28;20507;-64
2020/12/10 00:28:51;;;;;;;12.88;2.55;;;11.80;99.90;;;;;;5083080;28;20056;-65
2020/12/10 00:31:18;;;;;;;5.50;1.85;;;11.70;99.90;;;;;;5081771;28;20059;-64
2020/12/10 00:33:46;;;;;;;12.43;2.10;;;11.70;99.90;;;;;;5082340;28;20385;-64
2020/12/10 00:36:14;;;;;;;5.18;1.92;;;11.60;99.90;;;;;;5085032;28;20395;-66
2020/12/10 00:38:42;;;;;;;6.68;2.47;;;11.60;99.90;;;;;;5067081;28;20036;-65
2020/12/10 00:41:09;;;;;;;4.85;1.35;;;11.50;99.90;;;;;;5094053;28;20044;-65
2020/12/10 00:43:36;;;;;;;5.10;1.33;;;11.50;99.90;;;;;;5094020;28;20503;-65
2020/12/10 00:46:05;;;;;;;5.70;1.30;;;11.40;99.90;;;;;;5080458;28;20048;-65
2020/12/10 00:48:33;;;;;;;9.63;1.10;;;11.50;99.90;;;;;;5081117;28;20056;-66
2020/12/10 00:51:04;;;;;;;11.38;1.05;;;11.40;99.90;;;;;;5093628;28;20056;-65
2020/12/10 00:53:32;;;;;;;3.67;0.90;;;11.40;99.90;;;;;;5087869;28;20040;-64
2020/12/10 00:55:59;;;;;;;8.38;1.23;;;11.50;99.90;;;;;;5091168;28;20407;-65
2020/12/10 00:58:45;;;;;;;5.60;1.42;;;11.50;99.90;;;;;;5085533;28;20064;-64
2020/12/10 01:01:22;;;;;;;8.23;2.00;;;11.60;99.90;;;;;;5079054;28;20105;-65
2020/12/10 01:03:50;;;;;;;6.47;0.88;;;11.60;99.90;;;;;;5084739;28;20083;-64
2020/12/10 01:06:17;;;;;;;6.10;1.95;;;11.70;99.90;;;;;;5084977;28;20059;-64
2020/12/10 01:08:45;;;;;;;9.38;1.70;;;11.70;99.90;;;;;;5091552;28;20055;-64
2020/12/10 01:11:41;;;;;;;15.07;2.45;;;11.70;99.90;;;;;;5093576;28;20056;-64
2020/12/10 01:14:22;;;;;;;3.60;1.00;;;11.70;99.90;;;;;;5087909;28;20060;-64
2020/12/10 01:16:58;;;;;;;3.95;1.00;;;11.70;99.90;;;;;;5089657;28;20044;-65
2020/12/10 01:19:26;;;;;;;6.20;1.55;;;11.70;99.90;;;;;;5081325;28;20040;-64
2020/12/10 01:21:54;;;;;;;5.78;1.65;;;11.70;99.90;;;;;;5086370;28;20087;-64
2020/12/10 01:24:21;;;;;;;5.15;0.80;;;11.70;99.90;;;;;;5092167;28;20044;-65
2020/12/10 01:26:51;;;;;;;4.22;1.10;;;11.70;99.90;;;;;;5092018;28;20384;-64
2020/12/10 01:29:21;;;;;;;5.40;1.27;;;11.70;99.90;;;;;;5075871;28;20052;-63
2020/12/10 01:31:49;;;;;;;5.03;1.40;;;11.70;99.90;;;;;;5068747;28;20068;-65
2020/12/10 01:34:17;;;;;;;7.32;1.50;;;11.70;99.90;;;;;;5074033;28;20040;-64
2020/12/10 01:37:03;;;;;;;7.80;2.20;;;11.70;99.90;;;;;;5084149;28;20051;-65
2020/12/10 01:39:30;;;;;;;5.53;2.30;;;11.60;99.90;;;;;;5080380;28;20392;-64
2020/12/10 01:42:01;;;;;;;6.72;2.78;;;11.60;99.90;;;;;;5086831;28;20082;-64
2020/12/10 01:44:41;;;;;;;3.42;1.05;;;11.60;99.90;;;;;;5064061;28;20497;-61
2020/12/10 01:47:11;;;;;;;8.52;1.42;;;11.60;99.90;;;;;;5080453;28;20048;-65
2020/12/10 01:49:50;;;;;;;7.97;2.08;;;11.60;99.90;;;;;;5092030;28;20146;-64
2020/12/10 01:52:26;;;;;;;5.85;1.17;;;11.60;99.90;;;;;;5072678;28;20106;-64
2020/12/10 01:54:53;;;;;;;5.00;0.77;;;11.50;99.90;;;;;;5087301;28;20123;-65
2020/12/10 01:57:21;;;;;;;5.00;1.58;;;11.50;99.90;;;;;;5089852;28;20048;-65
2020/12/10 01:59:51;;;;;;;11.02;2.92;;;11.50;99.90;;;;;;5061350;28;20143;-64
2020/12/10 02:02:18;;;;;;;8.90;2.88;;;11.60;99.90;;;;;;5080430;28;20044;-64
2020/12/10 02:04:49;;;;;;;7.40;2.42;;;11.50;99.90;;;;;;5092297;28;20048;-64
2020/12/10 02:07:18;;;;;;;6.00;1.83;;;11.50;99.90;;;;;;5089557;28;20484;-64
2020/12/10 02:09:46;;;;;;;4.88;1.63;;;11.40;99.90;;;;;;5090203;28;20052;-64
2020/12/10 02:12:18;;;;;;;9.30;2.85;;;11.40;99.90;;;;;;5082242;28;20058;-65
2020/12/10 02:14:48;;;;;;;5.55;1.42;;;11.30;99.90;;;;;;5057515;28;20122;-64
2020/12/10 02:17:21;;;;;;;10.88;1.73;;;11.30;99.90;;;;;;5065977;28;20101;-65
2020/12/10 02:19:51;;;;;;;11.70;3.15;;;11.30;99.90;;;;;;5085260;28;20037;-64
2020/12/10 02:22:21;;;;;;;18.58;4.15;;;11.20;99.90;;;;;;5073273;28;20065;-65
2020/12/10 02:24:49;;;;;;;14.98;4.38;;;11.20;99.90;;;;;;5076911;28;20044;-64
2020/12/10 02:27:16;;;;;;;18.85;5.30;;;11.20;99.90;;;;;;5090733;28;20105;-65
2020/12/10 02:29:45;;;;;;;29.10;5.47;;;11.20;99.90;;;;;;5090952;28;20040;-64
2020/12/10 02:32:12;;;;;;;17.45;5.85;;;11.30;99.90;;;;;;5083758;28;20045;-64
2020/12/10 02:34:39;;;;;;;11.35;4.00;;;11.20;99.90;;;;;;5090832;28;20335;-64
2020/12/10 02:37:10;;;;;;;7.50;2.50;;;11.30;99.90;;;;;;5087552;28;20491;-65
2020/12/10 02:39:38;;;;;;;24.85;2.92;;;11.30;99.90;;;;;;5081516;28;20211;-64
2020/12/10 02:42:05;;;;;;;14.75;2.15;;;11.30;99.90;;;;;;5087345;28;20062;-65
2020/12/10 02:44:32;;;;;;;8.05;2.35;;;11.30;99.90;;;;;;5080141;28;20040;-64
2020/12/10 02:47:00;;;;;;;8.75;1.60;;;11.40;99.90;;;;;;5083661;28;20040;-63
2020/12/10 02:49:28;;;;;;;8.85;1.48;;;11.40;99.90;;;;;;5081185;28;20450;-65
2020/12/10 02:51:55;;;;;;;6.85;1.50;;;11.50;99.90;;;;;;5079316;28;20518;-65
2020/12/10 02:54:22;;;;;;;10.55;1.83;;;11.50;99.90;;;;;;5091668;28;20048;-63
2020/12/10 02:56:52;;;;;;;8.38;1.60;;;11.50;99.90;;;;;;5075363;28;20067;-64
2020/12/10 02:59:19;;;;;;;13.20;1.75;;;11.50;99.90;;;;;;5075336;28;20094;-64
2020/12/10 03:01:53;;;;;;;11.65;1.50;;;11.50;99.90;;;;;;5071717;28;20518;-65
2020/12/10 03:04:20;;;;;;;6.80;1.90;;;11.50;99.90;;;;;;5075919;28;20052;-63
2020/12/10 03:06:50;;;;;;;8.20;1.80;;;11.50;99.90;;;;;;5089984;28;20511;-64
2020/12/10 03:09:17;;;;;;;11.45;1.63;;;11.50;99.90;;;;;;5070328;28;20056;-64
2020/12/10 03:11:48;;;;;;;9.45;1.95;;;11.40;99.90;;;;;;5079033;28;20435;-64
2020/12/10 03:14:15;;;;;;;7.28;1.13;;;11.40;99.90;;;;;;5076353;28;20047;-64
2020/12/10 03:16:42;;;;;;;8.00;1.20;;;11.40;99.90;;;;;;5088562;28;20048;-64
2020/12/10 03:19:10;;;;;;;6.28;1.80;;;11.50;99.90;;;;;;5078820;28;20039;-64
2020/12/10 03:21:37;;;;;;;13.13;2.30;;;11.50;99.90;;;;;;5087633;28;20131;-62
2020/12/10 03:24:05;;;;;;;4.95;0.82;;;11.50;99.90;;;;;;5070191;28;20520;-64
2020/12/10 03:26:32;;;;;;;6.97;0.98;;;11.50;99.90;;;;;;5083879;28;20527;-64
2020/12/10 03:28:59;;;;;;;7.90;1.10;;;11.50;99.90;;;;;;5072947;28;20502;-64
2020/12/10 03:31:27;;;;;;;4.13;0.70;;;11.60;99.90;;;;;;5090200;28;20044;-64
2020/12/10 03:33:55;;;;;;;9.73;0.93;;;11.60;99.90;;;;;;5094219;28;20086;-63
2020/12/10 03:36:23;;;;;;;8.38;2.05;;;11.60;99.90;;;;;;5087530;28;20040;-64
2020/12/10 03:39:08;;;;;;;5.03;1.10;;;11.60;99.90;;;;;;5074371;28;20445;-64
2020/12/10 03:41:35;;;;;;;11.27;2.72;;;11.60;99.90;;;;;;5083941;28;20048;-64
2020/12/10 03:44:03;;;;;;;4.22;1.20;;;11.60;99.90;;;;;;5082554;28;20402;-64
2020/12/10 03:46:30;;;;;;;10.32;1.60;;;11.60;99.90;;;;;;5074858;28;20052;-63
2020/12/10 03:48:58;;;;;;;7.05;1.67;;;11.60;99.90;;;;;;5081516;28;20044;-64
2020/12/10 03:51:25;;;;;;;10.20;2.58;;;11.60;99.90;;;;;;5067688;28;20061;-64
2020/12/10 03:53:53;;;;;;;5.20;1.10;;;11.60;99.90;;;;;;5076174;28;20392;-64
2020/12/10 03:56:20;;;;;;;6.10;1.05;;;11.50;99.90;;;;;;5093716;28;20055;-64
2020/12/10 03:58:48;;;;;;;3.75;1.00;;;11.50;99.90;;;;;;5076595;28;20583;-63
2020/12/10 04:01:18;;;;;;;7.00;1.42;;;11.50;99.90;;;;;;5075562;28;20514;-64
2020/12/10 04:03:45;;;;;;;10.50;2.03;;;11.40;99.90;;;;;;5082086;28;20570;-64
2020/12/10 04:06:13;;;;;;;6.03;1.23;;;11.50;99.90;;;;;;5081750;28;20041;-64
2020/12/10 04:08:40;;;;;;;5.28;1.55;;;11.50;99.90;;;;;;5081743;28;20095;-63
2020/12/10 04:11:07;;;;;;;5.18;1.20;;;11.50;99.90;;;;;;5049895;28;20063;-63
2020/12/10 04:13:35;;;;;;;6.00;1.40;;;11.60;99.90;;;;;;5087604;28;20048;-64
2020/12/10 04:16:03;;;;;;;4.40;1.13;;;11.50;99.90;;;;;;5083061;28;20422;-64
2020/12/10 04:18:35;;;;;;;7.10;2.47;;;11.50;99.90;;;;;;5093147;28;20044;-64
2020/12/10 04:21:03;;;;;;;4.40;0.75;;;11.50;99.90;;;;;;5092525;28;20555;-64
2020/12/10 04:23:31;;;;;;;7.10;0.82;;;11.60;99.90;;;;;;5084375;28;20102;-64
2020/12/10 04:25:58;;;;;;;6.22;1.80;;;11.60;99.90;;;;;;5093725;28;20048;-64
2020/12/10 04:28:27;;;;;;;5.45;0.70;;;11.60;99.90;;;;;;5086260;28;20135;-65
2020/12/10 04:30:54;;;;;;;9.15;1.73;;;11.60;99.90;;;;;;5089614;28;20045;-64
2020/12/10 04:33:22;;;;;;;5.65;1.30;;;11.60;99.90;;;;;;5088708;28;20119;-64
2020/12/10 04:35:50;;;;;;;14.77;2.88;;;11.50;99.90;;;;;;5093513;28;20075;-64
2020/12/10 04:38:20;;;;;;;9.60;3.05;;;11.50;99.90;;;;;;5090746;28;20052;-64
2020/12/10 04:40:48;;;;;;;11.18;3.65;;;11.50;99.90;;;;;;5083238;28;20052;-65
2020/12/10 04:43:16;;;;;;;8.40;2.80;;;11.50;99.90;;;;;;5095114;28;20055;-65
2020/12/10 04:45:44;;;;;;;11.82;2.83;;;11.40;99.90;;;;;;5084142;28;20056;-65
2020/12/10 04:48:12;;;;;;;17.42;2.60;;;11.50;99.90;;;;;;5087665;28;20056;-63
2020/12/10 04:50:40;;;;;;;10.10;1.55;;;11.50;99.90;;;;;;5065454;28;20056;-65
2020/12/10 04:53:08;;;;;;;8.18;1.50;;;11.50;99.90;;;;;;5091800;28;20047;-65
2020/12/10 04:55:36;;;;;;;11.18;2.42;;;11.50;99.90;;;;;;5083791;28;20052;-64
2020/12/10 04:58:05;;;;;;;6.95;1.73;;;11.50;99.90;;;;;;5075901;28;20040;-62
2020/12/10 05:00:35;;;;;;;7.00;1.50;;;11.50;99.90;;;;;;5084490;28;20454;-65
2020/12/10 05:03:02;;;;;;;14.23;3.28;;;11.40;99.90;;;;;;5063866;28;20049;-64
2020/12/10 05:05:33;;;;;;;7.10;2.15;;;11.40;99.90;;;;;;5081153;28;20060;-64
2020/12/10 05:08:02;;;;;;;15.68;2.45;;;11.30;99.90;;;;;;5073598;28;20052;-64
2020/12/10 05:10:42;;;;;;;8.65;1.88;;;11.40;99.90;;;;;;5083998;28;20060;-64
2020/12/10 05:13:12;;;;;;;7.70;1.98;;;11.30;99.90;;;;;;5101216;28;20071;-63
2020/12/10 05:15:41;;;;;;;12.95;1.80;;;11.20;99.90;;;;;;5092700;28;20051;-63
2020/12/10 05:18:11;;;;;;;4.60;1.73;;;11.10;99.90;;;;;;5084397;28;20239;-63
2020/12/10 05:20:40;;;;;;;13.32;1.88;;;11.10;99.90;;;;;;5092834;28;20147;-64
2020/12/10 05:23:08;;;;;;;7.03;0.77;;;11.10;99.90;;;;;;5087270;28;20059;-65
2020/12/10 05:25:45;;;;;;;7.40;2.25;;;11.10;99.90;;;;;;5092966;28;20051;-64
2020/12/10 05:28:13;;;;;;;9.48;2.20;;;11.10;99.90;;;;;;5079795;28;20071;-65
2020/12/10 05:30:44;;;;;;;6.15;2.13;;;11.10;99.90;;;;;;5079117;28;20098;-63
2020/12/10 05:33:13;;;;;;;6.00;1.58;;;11.10;99.90;;;;;;5083539;28;20520;-64
2020/12/10 05:35:41;;;;;;;5.00;1.02;;;11.10;99.90;;;;;;5093791;28;20059;-63
2020/12/10 05:38:11;;;;;;;8.32;1.95;;;11.10;99.90;;;;;;5093346;28;20502;-63
2020/12/10 05:40:39;;;;;;;7.57;1.25;;;11.00;99.90;;;;;;5092816;28;20040;-63
2020/12/10 05:43:07;;;;;;;11.10;2.40;;;11.00;99.90;;;;;;5093633;28;20062;-63
2020/12/10 05:45:38;;;;;;;9.85;2.60;;;10.90;99.90;;;;;;5091743;28;20044;-64
2020/12/10 05:48:06;;;;;;;9.57;2.10;;;11.00;99.90;;;;;;5092186;28;20052;-64
2020/12/10 05:50:34;;;;;;;8.10;1.73;;;11.00;99.90;;;;;;5092911;28;20056;-64
2020/12/10 05:53:02;;;;;;;13.40;3.70;;;11.00;99.90;;;;;;5075112;28;20495;-64
2020/12/10 05:55:30;;;;;;;11.32;2.15;;;10.90;99.90;;;;;;5092449;28;20044;-64
2020/12/10 05:57:59;;;;;;;13.48;3.15;;;10.90;99.90;;;;;;5092857;28;20040;-63
2020/12/10 06:00:27;;;;;;;9.75;1.80;;;10.90;99.90;;;;;;5087128;28;20036;-64
2020/12/10 06:02:55;;;;;;;10.88;4.72;;;10.90;99.90;;;;;;5092296;28;20096;-64
2020/12/10 06:05:24;;;;;;;15.10;5.57;;;10.90;99.90;;;;;;5093162;28;20047;-63
2020/12/10 06:08:18;;;;;;;10.40;2.03;;;11.00;99.90;;;;;;5091624;28;20055;-62
2020/12/10 06:10:48;;;;;;;4.80;1.95;;;11.00;99.90;;;;;;5090756;28;20062;-64
2020/12/10 06:13:16;;;;;;;11.75;2.78;;;10.90;99.90;;;;;;5093153;28;20044;-64
2020/12/10 06:15:44;;;;;;;3.42;1.15;;;11.00;99.90;;;;;;5093267;28;20079;-63
2020/12/10 06:18:15;;;;;;;5.60;2.03;;;11.00;99.90;;;;;;5092887;28;20058;-64
2020/12/10 06:20:46;;;;;;;12.43;1.40;;;10.90;99.90;;;;;;5093193;28;20129;-62
2020/12/10 06:23:34;;;;;;;9.32;2.40;;;10.90;99.90;;;;;;5092902;28;20513;-64
2020/12/10 06:26:24;;;;;;;8.23;1.40;;;10.90;99.90;;;;;;5091989;28;20079;-64
2020/12/10 06:29:22;;;;;;;10.23;1.55;;;11.00;99.90;;;;;;5089115;28;20157;-62
2020/12/10 06:32:02;;;;;;;4.10;0.70;;;11.00;99.90;;;;;;5092950;28;20410;-64
2020/12/10 06:34:36;;;;;;;12.07;1.13;;;11.00;99.90;;;;;;5091834;28;20407;-64
2020/12/10 06:37:22;;;;;;;3.63;0.70;;;11.00;99.90;;;;;;5091706;28;20136;-64
2020/12/10 06:40:26;;;;;;;11.25;2.03;;;11.10;99.90;;;;;;5092549;28;20051;-63
2020/12/10 06:42:56;;;;;;;4.45;1.27;;;11.10;99.90;;;;;;5091876;28;20048;-64
2020/12/10 06:45:31;;;;;;;9.18;2.95;;;11.10;99.90;;;;;;5071706;28;20059;-64
2020/12/10 06:48:00;;;;;;;5.35;2.05;;;11.10;99.90;;;;;;5092884;28;20047;-64
2020/12/10 06:50:30;;;;;;;8.55;2.97;;;11.10;99.90;;;;;;5091341;28;20128;-63
2020/12/10 06:53:23;;;;;;;8.02;1.73;;;11.10;99.90;;;;;;5091790;28;20047;-64
2020/12/10 06:56:00;;;;;;;13.40;3.78;;;11.20;99.90;;;;;;5089359;28;20407;-64
2020/12/10 06:58:37;;;;;;;23.90;9.88;;;11.30;99.90;;;;;;5090841;28;20076;-64
2020/12/10 07:01:30;;;;;;;19.25;8.27;;;11.30;99.90;;;;;;5075619;28;20047;-64
2020/12/10 07:07:12;;;;;;;6.47;2.50;;;11.60;99.90;;;;;;5093205;28;20125;-63
2020/12/10 07:09:49;;;;;;;13.57;2.15;;;11.70;99.90;;;;;;5091525;28;20128;-64
2020/12/10 07:12:19;;;;;;;10.47;1.70;;;11.80;99.90;;;;;;5092089;28;20135;-64
2020/12/10 07:14:47;;;;;;;8.18;2.50;;;12.00;99.90;;;;;;5093042;28;20048;-64
2020/12/10 07:17:15;;;;;;;13.68;3.20;;;12.10;99.90;;;;;;5075517;28;20491;-64
2020/12/10 07:19:42;;;;;;;7.00;2.50;;;12.30;99.90;;;;;;5091644;28;20055;-64
2020/12/10 07:22:14;;;;;;;18.50;3.13;;;12.40;99.90;;;;;;5091893;28;20047;-64
2020/12/10 07:24:42;;;;;;;11.07;1.92;;;12.60;99.90;;;;;;5093110;28;20052;-64
2020/12/10 07:27:13;;;;;;;9.43;2.65;;;12.70;99.90;;;;;;5092099;28;20401;-63
2020/12/10 07:29:40;;;;;;;9.70;2.08;;;12.90;99.90;;;;;;5092453;28;20082;-64
2020/12/10 07:32:13;;;;;;;15.43;2.65;;;13.00;99.90;;;;;;5091914;28;20052;-64
2020/12/10 07:34:45;;;;;;;7.00;2.22;;;13.10;99.90;;;;;;5093276;28;20189;-64
2020/12/10 07:37:16;;;;;;;8.60;3.15;;;13.20;99.90;;;;;;5093293;28;20055;-64
2020/12/10 07:39:47;;;;;;;12.15;3.15;;;13.30;99.90;;;;;;5074715;28;20051;-65
2020/12/10 07:42:19;;;;;;;11.35;2.63;;;13.40;99.90;;;;;;5091744;28;20070;-64
2020/12/10 07:44:53;;;;;;;9.35;2.33;;;13.50;99.90;;;;;;5090378;28;20414;-64
2020/12/10 07:47:21;;;;;;;10.35;3.17;;;13.70;99.90;;;;;;5091762;28;20082;-64
2020/12/10 07:49:48;;;;;;;19.15;3.38;;;13.80;99.90;;;;;;5092072;28;20554;-64
2020/12/10 07:52:16;;;;;;;11.23;2.95;;;14.00;99.90;;;;;;5093211;28;20055;-64
2020/12/10 07:54:52;;;;;;;9.60;2.60;;;14.20;99.90;;;;;;5091569;28;20044;-64
2020/12/10 07:57:41;;;;;;;16.23;3.85;;;14.40;99.90;;;;;;5092783;28;20056;-64
2020/12/10 08:00:17;;;;;;;8.90;2.47;;;14.60;99.90;;;;;;5091832;28;20048;-64
2020/12/10 08:03:03;;;;;;;11.52;2.47;;;14.70;99.90;;;;;;5091521;28;20499;-64
2020/12/10 08:05:35;;;;;;;9.98;2.42;;;14.90;99.90;;;;;;5091562;28;20055;-64
2020/12/10 08:08:03;;;;;;;7.68;3.40;;;15.10;99.90;;;;;;5074492;28;20056;-64
2020/12/10 08:10:39;;;;;;;6.13;2.70;;;15.20;99.90;;;;;;5091496;28;20407;-64
2020/12/10 08:13:19;;;;;;;13.20;2.25;;;15.40;99.90;;;;;;5091413;28;20051;-64
2020/12/10 08:15:50;;;;;;;11.40;2.72;;;15.50;99.90;;;;;;5094162;28;20040;-64
2020/12/10 08:18:20;;;;;;;5.53;2.47;;;15.60;99.90;;;;;;5094513;28;20118;-64
2020/12/10 08:20:52;;;;;;;10.98;2.25;;;15.70;99.90;;;;;;5078426;28;20130;-64
2020/12/10 08:23:20;;;;;;;9.65;2.05;;;15.70;99.90;;;;;;5096087;28;20055;-64
2020/12/10 08:26:15;;;;;;;8.93;2.53;;;15.80;99.90;;;;;;5096031;28;20056;-64
2020/12/10 08:28:54;;;;;;;6.65;2.60;;;15.90;99.90;;;;;;5095531;28;20054;-64
2020/12/10 08:31:26;;;;;;;5.68;1.10;;;16.00;99.90;;;;;;5095956;28;20062;-64
2020/12/10 08:33:55;;;;;;;10.75;1.90;;;16.10;99.90;;;;;;5077674;28;20054;-64
2020/12/10 08:36:31;;;;;;;8.00;2.78;;;16.10;99.90;;;;;;5096038;28;20048;-64
2020/12/10 08:39:04;;;;;;;10.23;1.88;;;16.20;99.90;;;;;;5095347;28;20526;-64
2020/12/10 08:41:36;;;;;;;10.10;2.78;;;16.30;99.90;;;;;;5095736;28;20545;-63
2020/12/10 08:44:07;;;;;;;16.83;2.78;;;16.30;99.90;;;;;;5078121;28;20051;-64
2020/12/10 08:46:37;;;;;;;8.07;2.67;;;16.40;99.90;;;;;;5095490;28;20051;-64
2020/12/10 08:49:21;;;;;;;16.08;2.10;;;16.50;99.90;;;;;;5095273;28;20102;-64
2020/12/10 08:51:54;;;;;;;7.78;1.75;;;16.50;99.90;;;;;;5094059;28;20414;-64
2020/12/10 08:54:22;;;;;;;8.90;2.17;;;16.60;99.90;;;;;;5093993;28;20055;-64
2020/12/10 08:57:05;;;;;;;7.78;1.30;;;16.60;99.90;;;;;;5077686;28;20048;-64
2020/12/10 08:59:35;;;;;;;4.05;1.30;;;16.70;99.90;;;;;;5094901;28;20040;-64
2020/12/10 09:02:06;;;;;;;5.47;1.25;;;16.70;99.90;;;;;;5094125;28;20048;-64
2020/12/10 09:04:33;;;;;;;14.38;2.08;;;16.70;99.90;;;;;;5095471;28;20048;-64
2020/12/10 09:07:01;;;;;;;9.60;2.25;;;16.70;99.90;;;;;;5095266;28;20131;-64
2020/12/10 09:09:28;;;;;;;15.15;1.50;;;16.70;99.90;;;;;;5093498;28;20058;-64
2020/12/10 09:11:59;;;;;;;8.00;1.27;;;16.60;99.90;;;;;;5094228;28;20056;-64
2020/12/10 09:14:26;;;;;;;5.28;1.55;;;16.50;99.90;;;;;;5093727;28;20117;-65
2020/12/10 09:16:54;;;;;;;8.27;2.03;;;16.50;99.90;;;;;;5093910;28;20048;-64
2020/12/10 09:19:21;;;;;;;10.52;0.98;;;16.40;99.90;;;;;;5093370;28;20392;-64
2020/12/10 09:21:49;;;;;;;9.77;1.77;;;16.30;99.90;;;;;;5094927;28;20502;-64
2020/12/10 09:24:17;;;;;;;7.97;2.33;;;16.40;99.90;;;;;;5095172;28;20054;-64
2020/12/10 09:26:45;;;;;;;5.25;1.13;;;16.40;99.90;;;;;;5093472;28;20048;-64
2020/12/10 09:29:13;;;;;;;9.77;1.25;;;16.40;99.90;;;;;;5094394;28;20044;-64
2020/12/10 09:31:43;;;;;;;5.18;1.00;;;16.40;99.90;;;;;;5094736;28;20058;-64
2020/12/10 09:34:10;;;;;;;7.35;0.98;;;16.20;99.90;;;;;;5094598;28;20040;-65
2020/12/10 09:36:38;;;;;;;5.18;1.80;;;16.10;99.90;;;;;;5093279;28;20406;-64
2020/12/10 09:39:06;;;;;;;13.13;3.25;;;16.00;99.90;;;;;;5093007;28;20068;-64
2020/12/10 09:41:35;;;;;;;8.68;1.73;;;16.00;99.90;;;;;;5094864;28;20044;-64
2020/12/10 09:44:03;;;;;;;7.10;2.13;;;16.10;99.90;;;;;;5093639;28;20130;-64
2020/12/10 09:46:34;;;;;;;6.35;1.95;;;16.20;99.90;;;;;;5094427;28;20044;-64
2020/12/10 09:49:04;;;;;;;5.60;1.00;;;16.20;99.90;;;;;;5092430;28;20146;-64
2020/12/10 09:51:39;;;;;;;8.50;2.28;;;16.20;99.90;;;;;;5092997;28;20064;-64
2020/12/10 09:54:14;;;;;;;9.15;1.40;;;16.30;99.90;;;;;;5093203;28;20075;-64
2020/12/10 09:59:14;;;;;;;11.23;3.17;;;16.70;99.90;;;;;;5093664;28;20477;-64
2020/12/10 10:01:45;;;;;;;5.07;2.30;;;16.90;99.90;;;;;;5094219;28;20058;-64
2020/12/10 10:04:13;;;;;;;11.73;2.45;;;17.10;99.90;;;;;;5094163;28;20056;-63
2020/12/10 10:06:43;;;;;;;8.15;1.13;;;17.30;99.90;;;;;;5093982;28;20055;-64
2020/12/10 10:09:11;;;;;;;6.05;1.05;;;17.40;99.90;;;;;;5092369;28;20094;-64
2020/12/10 10:11:41;;;;;;;4.80;1.23;;;17.00;99.90;;;;;;5092160;28;20105;-64
2020/12/10 10:14:14;;;;;;;8.18;1.15;;;16.80;99.90;;;;;;5092733;28;20086;-64
2020/12/10 10:16:41;;;;;;;6.38;1.38;;;16.50;99.90;;;;;;5093817;28;20449;-64
2020/12/10 10:19:09;;;;;;;6.15;0.60;;;16.30;99.90;;;;;;5092178;28;20050;-63
2020/12/10 10:21:36;;;;;;;4.07;1.02;;;16.10;99.90;;;;;;5094052;28;20449;-64
2020/12/10 10:24:04;;;;;;;6.07;1.30;;;16.00;99.90;;;;;;5092640;28;20414;-63
2020/12/10 10:26:31;;;;;;;4.28;0.90;;;15.70;99.90;;;;;;5093631;28;20052;-64
2020/12/10 10:29:00;;;;;;;6.18;1.05;;;15.60;99.90;;;;;;5093108;28;20048;-64
2020/12/10 10:31:27;;;;;;;5.75;0.65;;;15.60;99.90;;;;;;5093643;28;20498;-64
2020/12/10 10:33:57;;;;;;;9.20;1.02;;;15.60;99.90;;;;;;5093498;28;20048;-64
2020/12/10 10:36:28;;;;;;;5.03;1.40;;;15.70;99.90;;;;;;5093526;28;20040;-64
2020/12/10 10:38:56;;;;;;;8.88;1.63;;;15.60;99.90;;;;;;5091735;28;20068;-65
2020/12/10 10:41:23;;;;;;;4.78;1.02;;;15.40;99.90;;;;;;5092975;28;20134;-63
2020/12/10 10:43:51;;;;;;;4.82;1.20;;;15.30;99.90;;;;;;5093505;28;20083;-64
2020/12/10 10:46:19;;;;;;;7.78;1.02;;;15.30;99.90;;;;;;5092262;28;20056;-64
2020/12/10 10:48:47;;;;;;;1.50;0.40;;;15.50;99.90;;;;;;5093004;28;20052;-64
2020/12/10 10:51:14;;;;;;;9.20;2.40;;;15.60;99.90;;;;;;5093082;28;20091;-64
2020/12/10 10:53:45;;;;;;;5.07;1.60;;;15.70;99.90;;;;;;5092141;28;20051;-64
2020/12/10 10:56:12;;;;;;;8.02;1.77;;;16.00;99.90;;;;;;5093347;28;20044;-64
2020/12/10 10:58:40;;;;;;;5.35;2.20;;;16.20;99.90;;;;;;5093186;28;20520;-64
2020/12/10 11:01:11;;;;;;;6.30;0.95;;;16.40;99.90;;;;;;5093222;28;20052;-64
2020/12/10 11:03:40;;;;;;;4.72;0.60;;;16.50;99.90;;;;;;5093273;28;20060;-64
2020/12/10 11:06:13;;;;;;;2.83;1.20;;;16.40;99.90;;;;;;5058806;28;20048;-64
2020/12/10 11:08:41;;;;;;;7.50;1.25;;;16.20;99.90;;;;;;5092843;28;20060;-64
2020/12/10 11:11:09;;;;;;;12.65;3.22;;;16.10;99.90;;;;;;5092233;28;20105;-64
2020/12/10 11:13:36;;;;;;;7.85;2.25;;;16.10;99.90;;;;;;5092035;28;20048;-64
2020/12/10 11:16:04;;;;;;;4.40;1.42;;;16.30;99.90;;;;;;5092046;28;20048;-65
2020/12/10 11:18:34;;;;;;;6.53;1.17;;;16.50;99.90;;;;;;5075347;28;20049;-64
2020/12/10 11:21:05;;;;;;;5.72;2.22;;;16.60;99.90;;;;;;5093164;28;20411;-64
2020/12/10 11:23:33;;;;;;;8.80;1.35;;;16.80;99.90;;;;;;5091801;28;20044;-64
2020/12/10 11:26:01;;;;;;;4.78;1.52;;;16.80;99.90;;;;;;5092127;28;20587;-64
2020/12/10 11:28:29;;;;;;;4.40;1.70;;;16.70;99.90;;;;;;5092505;28;20058;-65
2020/12/10 11:30:59;;;;;;;4.28;1.35;;;16.70;99.80;;;;;;5091880;28;20205;-64
2020/12/10 11:33:27;;;;;;;7.00;1.77;;;16.80;99.50;;;;;;5074854;28;20047;-64
2020/12/10 11:35:55;;;;;;;4.32;0.90;;;16.80;99.40;;;;;;5091960;28;20058;-64
2020/12/10 11:38:25;;;;;;;9.95;5.38;;;16.80;99.30;;;;;;5092224;28;20545;-64
2020/12/10 11:40:56;;;;;;;20.80;10.43;;;16.80;98.90;;;;;;5093280;28;20045;-64
2020/12/10 11:43:24;;;;;;;7.72;2.22;;;16.50;98.90;;;;;;5092949;28;20106;-64
2020/12/10 11:45:52;;;;;;;6.95;1.60;;;16.40;99.40;;;;;;5092765;28;20503;-64
2020/12/10 11:48:20;;;;;;;6.18;2.50;;;16.30;98.70;;;;;;5074665;28;20059;-64
2020/12/10 11:50:50;;;;;;;12.00;3.45;;;16.30;98.70;;;;;;5094689;28;20056;-64
2020/12/10 11:53:23;;;;;;;5.22;2.17;;;16.40;98.80;;;;;;5095395;28;20048;-64
2020/12/10 11:55:51;;;;;;;8.50;2.75;;;16.30;98.50;;;;;;5078715;28;20048;-64
2020/12/10 11:58:18;;;;;;;2.28;0.88;;;16.20;98.30;;;;;;5078226;28;20097;-64
2020/12/10 12:00:46;;;;;;;1.73;0.70;;;16.30;98.30;;;;;;5078599;28;20396;-64
2020/12/10 12:03:17;;;;;;;5.72;1.40;;;16.40;97.00;;;;;;5095352;28;20059;-64
2020/12/10 12:05:47;;;;;;;5.65;2.03;;;16.30;97.00;;;;;;5096329;28;20048;-63
2020/12/10 12:08:14;;;;;;;7.05;1.85;;;16.10;96.50;;;;;;5095874;28;20052;-64
2020/12/10 12:10:47;;;;;;;4.07;1.15;;;16.20;97.30;;;;;;5096574;28;20090;-64
2020/12/10 12:13:21;;;;;;;2.42;0.50;;;16.30;96.30;;;;;;5096293;28;20051;-64
2020/12/10 12:15:49;;;;;;;5.18;1.55;;;16.30;95.90;;;;;;5096226;28;20051;-64
2020/12/10 12:18:17;;;;;;;4.00;1.15;;;16.40;96.20;;;;;;5077789;28;20093;-64
2020/12/10 12:20:45;;;;;;;7.15;0.70;;;16.40;96.30;;;;;;5096410;28;20044;-64
2020/12/10 12:23:15;;;;;;;5.00;1.10;;;16.40;96.10;;;;;;5096141;28;20048;-63
2020/12/10 12:25:43;;;;;;;2.22;0.50;;;16.40;96.20;;;;;;5094835;28;20044;-64
2020/12/10 12:28:10;;;;;;;2.38;1.15;;;16.10;96.00;;;;;;5095522;28;20499;-64
2020/12/10 12:30:38;;;;;;;3.10;0.90;;;16.10;97.20;;;;;;5095950;28;20059;-64
2020/12/10 12:33:06;;;;;;;5.85;0.75;;;16.00;97.10;;;;;;5094831;28;20044;-64
2020/12/10 12:35:33;;;;;;;6.68;1.42;;;16.00;97.20;;;;;;5096186;28;20487;-64
2020/12/10 12:38:03;;;;;;;5.80;0.98;;;16.10;97.30;;;;;;5094099;28;20121;-64
2020/12/10 12:40:31;;;;;;;5.20;0.63;;;16.10;96.60;;;;;;5094689;28;20511;-64
2020/12/10 12:43:00;;;;;;;6.13;1.02;;;16.20;96.40;;;;;;5095781;28;20044;-63
2020/12/10 12:45:29;;;;;;;7.32;1.73;;;16.30;96.30;;;;;;5095689;28;20078;-64
2020/12/10 12:48:03;;;;;;;8.38;2.28;;;16.40;96.40;;;;;;5095471;28;20131;-64
2020/12/10 12:50:30;;;;;;;6.60;1.40;;;16.40;96.50;;;;;;5077365;28;20060;-64
2020/12/10 12:52:58;;;;;;;5.30;1.48;;;16.40;96.60;;;;;;5095560;28;20048;-64
2020/12/10 12:55:25;;;;;;;7.80;0.70;;;16.50;97.00;;;;;;5095422;28;20044;-64
2020/12/10 12:57:53;;;;;;;6.03;1.65;;;16.20;96.70;;;;;;5094260;28;20495;-64
2020/12/10 13:00:20;;;;;;;6.70;2.42;;;16.10;96.40;;;;;;5094850;28;20055;-64
2020/12/10 13:02:48;;;;;;;4.75;0.98;;;16.10;96.70;;;;;;5095868;28;20059;-64
2020/12/10 13:05:18;;;;;;;4.78;1.33;;;16.00;97.10;;;;;;5094278;28;20048;-64